sensor_id;sensor_type;location;lat;lon;timestamp;temperature;humidity
47546;DHT22;50104;52.002;4.688;2023-04-25T00:04:08;7.80;80.50
47546;DHT22;50104;52.002;4.688;2023-04-25T00:09:08;7.80;80.80
47546;DHT22;50104;52.002;4.688;2023-04-25T00:14:10;7.70;80.80
47546;DHT22;50104;52.002;4.688;2023-04-25T00:19:11;7.70;81.00
47546;DHT22;50104;52.002;4.688;2023-04-25T00:24:13;7.70;80.90
47546;DHT22;50104;52.002;4.688;2023-04-25T00:29:14;7.70;80.50
47546;DHT22;50104;52.002;4.688;2023-04-25T00:34:15;7.60;80.40
47546;DHT22;50104;52.002;4.688;2023-04-25T00:39:16;7.60;80.30
47546;DHT22;50104;52.002;4.688;2023-04-25T00:44:17;7.50;79.60
47546;DHT22;50104;52.002;4.688;2023-04-25T00:49:18;7.50;79.40
47546;DHT22;50104;52.002;4.688;2023-04-25T00:54:21;7.40;80.20
47546;DHT22;50104;52.002;4.688;2023-04-25T00:59:22;7.30;79.60
47546;DHT22;50104;52.002;4.688;2023-04-25T01:04:24;7.30;79.30
47546;DHT22;50104;52.002;4.688;2023-04-25T01:09:27;7.20;79.40
47546;DHT22;50104;52.002;4.688;2023-04-25T01:14:31;7.20;79.60
47546;DHT22;50104;52.002;4.688;2023-04-25T01:19:32;7.10;79.60
47546;DHT22;50104;52.002;4.688;2023-04-25T01:24:33;7.10;79.60
47546;DHT22;50104;52.002;4.688;2023-04-25T01:29:35;7.10;79.50
47546;DHT22;50104;52.002;4.688;2023-04-25T01:34:36;7.10;79.40
47546;DHT22;50104;52.002;4.688;2023-04-25T01:39:37;7.00;79.30
47546;DHT22;50104;52.002;4.688;2023-04-25T01:44:38;6.90;79.30
47546;DHT22;50104;52.002;4.688;2023-04-25T01:49:39;6.90;79.20
47546;DHT22;50104;52.002;4.688;2023-04-25T01:54:40;6.80;79.30
47546;DHT22;50104;52.002;4.688;2023-04-25T01:59:44;6.70;79.20
47546;DHT22;50104;52.002;4.688;2023-04-25T02:04:45;6.60;79.20
47546;DHT22;50104;52.002;4.688;2023-04-25T02:09:46;6.50;79.10
47546;DHT22;50104;52.002;4.688;2023-04-25T02:14:47;6.40;79.30
47546;DHT22;50104;52.002;4.688;2023-04-25T02:19:48;6.40;79.30
47546;DHT22;50104;52.002;4.688;2023-04-25T02:24:49;6.30;79.50
47546;DHT22;50104;52.002;4.688;2023-04-25T02:29:50;6.30;79.60
47546;DHT22;50104;52.002;4.688;2023-04-25T02:34:51;6.20;79.80
47546;DHT22;50104;52.002;4.688;2023-04-25T02:39:52;6.20;79.90
47546;DHT22;50104;52.002;4.688;2023-04-25T02:44:53;6.20;80.20
47546;DHT22;50104;52.002;4.688;2023-04-25T02:49:53;6.20;80.40
47546;DHT22;50104;52.002;4.688;2023-04-25T02:54:54;6.20;80.60
47546;DHT22;50104;52.002;4.688;2023-04-25T02:59:55;6.20;80.70
47546;DHT22;50104;52.002;4.688;2023-04-25T03:04:56;6.30;80.80
47546;DHT22;50104;52.002;4.688;2023-04-25T03:09:57;6.30;80.80
47546;DHT22;50104;52.002;4.688;2023-04-25T03:14:58;6.30;80.90
47546;DHT22;50104;52.002;4.688;2023-04-25T03:19:58;6.30;80.90
47546;DHT22;50104;52.002;4.688;2023-04-25T03:25:00;6.40;81.00
47546;DHT22;50104;52.002;4.688;2023-04-25T03:30:00;6.40;81.00
47546;DHT22;50104;52.002;4.688;2023-04-25T03:35:01;6.40;81.10
47546;DHT22;50104;52.002;4.688;2023-04-25T03:40:02;6.40;81.10
47546;DHT22;50104;52.002;4.688;2023-04-25T03:45:04;6.50;81.10
47546;DHT22;50104;52.002;4.688;2023-04-25T03:50:07;6.50;81.10
47546;DHT22;50104;52.002;4.688;2023-04-25T03:55:08;6.50;81.10
47546;DHT22;50104;52.002;4.688;2023-04-25T04:00:10;6.60;81.00
47546;DHT22;50104;52.002;4.688;2023-04-25T04:05:11;6.60;81.00
47546;DHT22;50104;52.002;4.688;2023-04-25T04:10:12;6.70;80.90
47546;DHT22;50104;52.002;4.688;2023-04-25T04:15:13;6.70;80.90
47546;DHT22;50104;52.002;4.688;2023-04-25T04:20:14;6.70;81.00
47546;DHT22;50104;52.002;4.688;2023-04-25T04:25:15;6.70;80.90
47546;DHT22;50104;52.002;4.688;2023-04-25T04:30:16;6.80;80.80
47546;DHT22;50104;52.002;4.688;2023-04-25T04:35:17;6.80;80.80
47546;DHT22;50104;52.002;4.688;2023-04-25T04:40:18;6.80;80.80
47546;DHT22;50104;52.002;4.688;2023-04-25T04:45:19;6.80;80.90
47546;DHT22;50104;52.002;4.688;2023-04-25T04:50:20;6.90;80.80
47546;DHT22;50104;52.002;4.688;2023-04-25T04:55:21;6.90;81.20
47546;DHT22;50104;52.002;4.688;2023-04-25T05:00:22;6.90;81.30
47546;DHT22;50104;52.002;4.688;2023-04-25T05:05:23;6.90;81.10
47546;DHT22;50104;52.002;4.688;2023-04-25T05:10:25;6.90;81.00
47546;DHT22;50104;52.002;4.688;2023-04-25T05:15:26;6.90;80.80
47546;DHT22;50104;52.002;4.688;2023-04-25T05:20:27;6.90;81.00
47546;DHT22;50104;52.002;4.688;2023-04-25T05:25:28;7.00;80.70
47546;DHT22;50104;52.002;4.688;2023-04-25T05:30:29;7.00;80.70
47546;DHT22;50104;52.002;4.688;2023-04-25T05:35:31;7.00;80.50
47546;DHT22;50104;52.002;4.688;2023-04-25T05:40:32;7.00;80.40
47546;DHT22;50104;52.002;4.688;2023-04-25T05:45:33;7.00;80.40
47546;DHT22;50104;52.002;4.688;2023-04-25T05:50:34;7.00;80.50
47546;DHT22;50104;52.002;4.688;2023-04-25T05:55:34;7.00;80.60
47546;DHT22;50104;52.002;4.688;2023-04-25T06:00:35;7.10;81.40
47546;DHT22;50104;52.002;4.688;2023-04-25T06:05:36;7.10;81.30
47546;DHT22;50104;52.002;4.688;2023-04-25T06:10:37;7.10;81.00
47546;DHT22;50104;52.002;4.688;2023-04-25T06:15:38;7.20;80.90
47546;DHT22;50104;52.002;4.688;2023-04-25T06:20:40;7.20;80.80
47546;DHT22;50104;52.002;4.688;2023-04-25T06:25:41;7.20;81.50
47546;DHT22;50104;52.002;4.688;2023-04-25T06:30:42;7.20;81.80
47546;DHT22;50104;52.002;4.688;2023-04-25T06:35:43;7.30;81.60
47546;DHT22;50104;52.002;4.688;2023-04-25T06:40:44;7.30;81.00
47546;DHT22;50104;52.002;4.688;2023-04-25T06:45:45;7.30;80.90
47546;DHT22;50104;52.002;4.688;2023-04-25T06:50:46;7.40;80.90
47546;DHT22;50104;52.002;4.688;2023-04-25T06:55:47;7.40;81.20
47546;DHT22;50104;52.002;4.688;2023-04-25T07:00:48;7.50;81.40
47546;DHT22;50104;52.002;4.688;2023-04-25T07:05:49;7.60;81.60
47546;DHT22;50104;52.002;4.688;2023-04-25T07:10:50;7.70;81.80
47546;DHT22;50104;52.002;4.688;2023-04-25T07:15:51;7.80;82.00
47546;DHT22;50104;52.002;4.688;2023-04-25T07:20:52;7.90;82.20
47546;DHT22;50104;52.002;4.688;2023-04-25T07:25:53;8.00;82.70
47546;DHT22;50104;52.002;4.688;2023-04-25T07:30:53;8.20;82.80
47546;DHT22;50104;52.002;4.688;2023-04-25T07:35:55;8.40;82.70
47546;DHT22;50104;52.002;4.688;2023-04-25T07:40:56;8.50;82.40
47546;DHT22;50104;52.002;4.688;2023-04-25T07:45:57;8.70;82.90
47546;DHT22;50104;52.002;4.688;2023-04-25T07:50:57;8.90;82.20
47546;DHT22;50104;52.002;4.688;2023-04-25T07:55:58;9.10;81.30
47546;DHT22;50104;52.002;4.688;2023-04-25T08:00:59;9.20;80.60
47546;DHT22;50104;52.002;4.688;2023-04-25T08:06:00;9.30;81.00
47546;DHT22;50104;52.002;4.688;2023-04-25T08:11:01;9.40;81.10
47546;DHT22;50104;52.002;4.688;2023-04-25T08:16:02;9.50;80.20
47546;DHT22;50104;52.002;4.688;2023-04-25T08:21:03;9.70;79.20
47546;DHT22;50104;52.002;4.688;2023-04-25T08:26:04;9.70;78.70
47546;DHT22;50104;52.002;4.688;2023-04-25T08:31:05;9.80;79.50
47546;DHT22;50104;52.002;4.688;2023-04-25T08:36:07;9.90;80.10
47546;DHT22;50104;52.002;4.688;2023-04-25T08:41:08;10.00;80.30
47546;DHT22;50104;52.002;4.688;2023-04-25T08:46:12;10.20;80.00
47546;DHT22;50104;52.002;4.688;2023-04-25T08:51:24;10.40;78.70
47546;DHT22;50104;52.002;4.688;2023-04-25T08:56:26;10.50;77.40
47546;DHT22;50104;52.002;4.688;2023-04-25T09:01:28;10.60;77.60
47546;DHT22;50104;52.002;4.688;2023-04-25T09:06:29;10.60;78.30
47546;DHT22;50104;52.002;4.688;2023-04-25T09:11:35;10.70;78.30
47546;DHT22;50104;52.002;4.688;2023-04-25T09:16:57;10.80;77.40
47546;DHT22;50104;52.002;4.688;2023-04-25T09:22:04;10.90;76.50
47546;DHT22;50104;52.002;4.688;2023-04-25T09:27:11;11.00;76.90
47546;DHT22;50104;52.002;4.688;2023-04-25T09:37:27;11.20;77.50
47546;DHT22;50104;52.002;4.688;2023-04-25T09:42:29;11.30;77.80
47546;DHT22;50104;52.002;4.688;2023-04-25T09:47:32;11.50;78.10
47546;DHT22;50104;52.002;4.688;2023-04-25T09:52:41;11.70;78.40
47546;DHT22;50104;52.002;4.688;2023-04-25T09:57:42;11.90;78.90
47546;DHT22;50104;52.002;4.688;2023-04-25T10:02:46;12.10;78.90
47546;DHT22;50104;52.002;4.688;2023-04-25T10:07:48;12.30;78.70
47546;DHT22;50104;52.002;4.688;2023-04-25T10:12:50;12.50;78.60
47546;DHT22;50104;52.002;4.688;2023-04-25T10:17:51;12.70;78.20
47546;DHT22;50104;52.002;4.688;2023-04-25T10:23:13;12.90;78.00
47546;DHT22;50104;52.002;4.688;2023-04-25T10:28:15;13.10;77.70
47546;DHT22;50104;52.002;4.688;2023-04-25T10:33:17;13.20;77.20
47546;DHT22;50104;52.002;4.688;2023-04-25T10:38:19;13.40;76.90
47546;DHT22;50104;52.002;4.688;2023-04-25T10:48:58;13.60;75.70
47546;DHT22;50104;52.002;4.688;2023-04-25T10:54:02;13.70;74.40
47546;DHT22;50104;52.002;4.688;2023-04-25T11:04:20;13.70;74.20
47546;DHT22;50104;52.002;4.688;2023-04-25T11:09:23;13.70;73.50
47546;DHT22;50104;52.002;4.688;2023-04-25T11:14:25;13.70;73.30
47546;DHT22;50104;52.002;4.688;2023-04-25T11:19:27;13.80;73.60
47546;DHT22;50104;52.002;4.688;2023-04-25T11:24:34;13.90;73.70
47546;DHT22;50104;52.002;4.688;2023-04-25T11:29:37;13.90;73.50
47546;DHT22;50104;52.002;4.688;2023-04-25T11:34:38;14.00;73.80
47546;DHT22;50104;52.002;4.688;2023-04-25T11:39:43;14.10;72.90
47546;DHT22;50104;52.002;4.688;2023-04-25T11:44:46;14.10;72.00
47546;DHT22;50104;52.002;4.688;2023-04-25T11:49:48;14.10;72.20
47546;DHT22;50104;52.002;4.688;2023-04-25T11:54:49;14.10;72.20
47546;DHT22;50104;52.002;4.688;2023-04-25T11:59:50;14.10;71.60
47546;DHT22;50104;52.002;4.688;2023-04-25T12:04:51;14.10;72.10
47546;DHT22;50104;52.002;4.688;2023-04-25T12:09:52;14.20;71.50
47546;DHT22;50104;52.002;4.688;2023-04-25T12:14:53;14.20;70.50
47546;DHT22;50104;52.002;4.688;2023-04-25T12:19:55;14.20;71.00
47546;DHT22;50104;52.002;4.688;2023-04-25T12:24:56;14.30;70.30
47546;DHT22;50104;52.002;4.688;2023-04-25T12:29:58;14.20;70.60
47546;DHT22;50104;52.002;4.688;2023-04-25T12:34:59;14.20;70.80
47546;DHT22;50104;52.002;4.688;2023-04-25T12:40:00;14.20;70.40
47546;DHT22;50104;52.002;4.688;2023-04-25T12:45:01;14.20;70.20
47546;DHT22;50104;52.002;4.688;2023-04-25T12:50:02;14.20;69.90
47546;DHT22;50104;52.002;4.688;2023-04-25T12:55:04;14.20;70.50
47546;DHT22;50104;52.002;4.688;2023-04-25T13:00:06;14.30;70.00
47546;DHT22;50104;52.002;4.688;2023-04-25T13:05:10;14.40;70.60
47546;DHT22;50104;52.002;4.688;2023-04-25T13:10:11;14.40;70.10
47546;DHT22;50104;52.002;4.688;2023-04-25T13:15:12;14.40;67.80
47546;DHT22;50104;52.002;4.688;2023-04-25T13:20:14;14.30;68.80
47546;DHT22;50104;52.002;4.688;2023-04-25T13:25:16;14.30;69.70
47546;DHT22;50104;52.002;4.688;2023-04-25T13:30:17;14.40;69.30
47546;DHT22;50104;52.002;4.688;2023-04-25T13:35:18;14.40;69.70
47546;DHT22;50104;52.002;4.688;2023-04-25T13:40:19;14.50;69.10
47546;DHT22;50104;52.002;4.688;2023-04-25T13:45:20;14.60;69.00
47546;DHT22;50104;52.002;4.688;2023-04-25T13:50:21;14.70;68.70
47546;DHT22;50104;52.002;4.688;2023-04-25T13:55:22;14.80;68.10
47546;DHT22;50104;52.002;4.688;2023-04-25T14:00:23;14.80;68.00
47546;DHT22;50104;52.002;4.688;2023-04-25T14:05:24;14.90;68.20
47546;DHT22;50104;52.002;4.688;2023-04-25T14:10:24;14.90;68.70
47546;DHT22;50104;52.002;4.688;2023-04-25T14:15:25;14.90;69.30
47546;DHT22;50104;52.002;4.688;2023-04-25T14:20:27;14.90;69.20
47546;DHT22;50104;52.002;4.688;2023-04-25T14:25:29;14.90;68.60
47546;DHT22;50104;52.002;4.688;2023-04-25T14:30:30;14.90;68.20
47546;DHT22;50104;52.002;4.688;2023-04-25T14:35:31;14.90;68.20
47546;DHT22;50104;52.002;4.688;2023-04-25T14:40:32;14.90;68.10
47546;DHT22;50104;52.002;4.688;2023-04-25T14:45:33;14.80;68.10
47546;DHT22;50104;52.002;4.688;2023-04-25T14:50:34;14.80;68.40
47546;DHT22;50104;52.002;4.688;2023-04-25T14:55:35;14.80;68.80
47546;DHT22;50104;52.002;4.688;2023-04-25T15:00:36;14.80;69.10
47546;DHT22;50104;52.002;4.688;2023-04-25T15:05:37;14.80;69.40
47546;DHT22;50104;52.002;4.688;2023-04-25T15:10:38;14.90;68.30
47546;DHT22;50104;52.002;4.688;2023-04-25T15:15:39;14.90;68.80
47546;DHT22;50104;52.002;4.688;2023-04-25T15:20:40;15.00;69.20
47546;DHT22;50104;52.002;4.688;2023-04-25T15:25:41;15.00;68.70
47546;DHT22;50104;52.002;4.688;2023-04-25T15:30:43;15.10;68.50
47546;DHT22;50104;52.002;4.688;2023-04-25T15:35:45;15.00;65.80
47546;DHT22;50104;52.002;4.688;2023-04-25T15:40:46;14.90;64.70
47546;DHT22;50104;52.002;4.688;2023-04-25T15:45:47;14.80;67.10
47546;DHT22;50104;52.002;4.688;2023-04-25T15:50:48;14.70;66.80
47546;DHT22;50104;52.002;4.688;2023-04-25T15:55:49;14.70;67.00
47546;DHT22;50104;52.002;4.688;2023-04-25T16:00:51;14.70;67.50
47546;DHT22;50104;52.002;4.688;2023-04-25T16:05:53;14.70;67.90
47546;DHT22;50104;52.002;4.688;2023-04-25T16:10:54;14.70;67.60
47546;DHT22;50104;52.002;4.688;2023-04-25T16:15:56;14.70;68.10
47546;DHT22;50104;52.002;4.688;2023-04-25T16:20:58;14.70;67.20
47546;DHT22;50104;52.002;4.688;2023-04-25T16:25:59;14.60;65.50
47546;DHT22;50104;52.002;4.688;2023-04-25T16:31:00;14.50;61.20
47546;DHT22;50104;52.002;4.688;2023-04-25T16:36:01;14.30;62.50
47546;DHT22;50104;52.002;4.688;2023-04-25T16:41:02;14.10;62.00
47546;DHT22;50104;52.002;4.688;2023-04-25T16:46:04;13.80;62.50
47546;DHT22;50104;52.002;4.688;2023-04-25T16:51:05;13.60;62.50
47546;DHT22;50104;52.002;4.688;2023-04-25T16:56:06;13.50;62.90
47546;DHT22;50104;52.002;4.688;2023-04-25T17:01:07;13.40;64.60
47546;DHT22;50104;52.002;4.688;2023-04-25T17:06:10;13.30;66.40
47546;DHT22;50104;52.002;4.688;2023-04-25T17:11:11;13.40;66.90
47546;DHT22;50104;52.002;4.688;2023-04-25T17:16:12;13.40;66.40
47546;DHT22;50104;52.002;4.688;2023-04-25T17:21:16;13.50;67.40
47546;DHT22;50104;52.002;4.688;2023-04-25T17:26:17;13.50;67.00
47546;DHT22;50104;52.002;4.688;2023-04-25T17:31:18;13.60;66.80
47546;DHT22;50104;52.002;4.688;2023-04-25T17:36:20;13.60;65.60
47546;DHT22;50104;52.002;4.688;2023-04-25T17:41:21;13.60;64.30
47546;DHT22;50104;52.002;4.688;2023-04-25T17:46:23;13.50;64.80
47546;DHT22;50104;52.002;4.688;2023-04-25T17:51:23;13.40;64.00
47546;DHT22;50104;52.002;4.688;2023-04-25T17:56:24;13.30;62.80
47546;DHT22;50104;52.002;4.688;2023-04-25T18:01:25;13.20;62.60
47546;DHT22;50104;52.002;4.688;2023-04-25T18:06:26;13.10;62.60
47546;DHT22;50104;52.002;4.688;2023-04-25T18:11:28;12.90;62.30
47546;DHT22;50104;52.002;4.688;2023-04-25T18:16:29;12.70;62.70
47546;DHT22;50104;52.002;4.688;2023-04-25T18:21:30;12.50;62.80
47546;DHT22;50104;52.002;4.688;2023-04-25T18:26:32;12.40;63.20
47546;DHT22;50104;52.002;4.688;2023-04-25T18:31:33;12.20;63.50
47546;DHT22;50104;52.002;4.688;2023-04-25T18:36:35;12.00;63.60
47546;DHT22;50104;52.002;4.688;2023-04-25T18:41:37;11.90;64.10
47546;DHT22;50104;52.002;4.688;2023-04-25T18:46:38;11.70;64.40
47546;DHT22;50104;52.002;4.688;2023-04-25T18:51:40;11.50;64.50
47546;DHT22;50104;52.002;4.688;2023-04-25T18:56:41;11.30;64.70
47546;DHT22;50104;52.002;4.688;2023-04-25T19:01:42;11.10;64.80
47546;DHT22;50104;52.002;4.688;2023-04-25T19:06:43;11.00;65.10
47546;DHT22;50104;52.002;4.688;2023-04-25T19:11:46;10.80;65.70
47546;DHT22;50104;52.002;4.688;2023-04-25T19:16:47;10.60;66.00
47546;DHT22;50104;52.002;4.688;2023-04-25T19:21:48;10.50;66.40
47546;DHT22;50104;52.002;4.688;2023-04-25T19:26:50;10.30;66.90
47546;DHT22;50104;52.002;4.688;2023-04-25T19:31:51;10.10;67.10
47546;DHT22;50104;52.002;4.688;2023-04-25T19:36:52;10.00;67.40
47546;DHT22;50104;52.002;4.688;2023-04-25T19:41:53;9.90;67.50
47546;DHT22;50104;52.002;4.688;2023-04-25T19:46:56;9.80;68.00
47546;DHT22;50104;52.002;4.688;2023-04-25T19:52:00;9.70;68.20
47546;DHT22;50104;52.002;4.688;2023-04-25T19:57:00;9.60;68.40
47546;DHT22;50104;52.002;4.688;2023-04-25T20:02:03;9.40;68.70
47546;DHT22;50104;52.002;4.688;2023-04-25T20:07:04;9.30;68.90
47546;DHT22;50104;52.002;4.688;2023-04-25T20:12:05;9.30;69.10
47546;DHT22;50104;52.002;4.688;2023-04-25T20:17:07;9.10;69.20
47546;DHT22;50104;52.002;4.688;2023-04-25T20:22:08;9.00;69.30
47546;DHT22;50104;52.002;4.688;2023-04-25T20:27:08;8.90;69.40
47546;DHT22;50104;52.002;4.688;2023-04-25T20:32:09;8.90;69.50
47546;DHT22;50104;52.002;4.688;2023-04-25T20:37:10;8.70;69.60
47546;DHT22;50104;52.002;4.688;2023-04-25T20:42:11;8.70;69.80
47546;DHT22;50104;52.002;4.688;2023-04-25T20:47:12;8.60;69.90
47546;DHT22;50104;52.002;4.688;2023-04-25T20:52:14;8.50;70.10
47546;DHT22;50104;52.002;4.688;2023-04-25T20:57:16;8.40;70.20
47546;DHT22;50104;52.002;4.688;2023-04-25T21:02:17;8.30;70.20
47546;DHT22;50104;52.002;4.688;2023-04-25T21:07:18;8.20;69.90
47546;DHT22;50104;52.002;4.688;2023-04-25T21:12:19;8.10;69.00
47546;DHT22;50104;52.002;4.688;2023-04-25T21:17:20;8.00;68.70
47546;DHT22;50104;52.002;4.688;2023-04-25T21:22:22;7.90;68.60
47546;DHT22;50104;52.002;4.688;2023-04-25T21:27:23;7.80;68.60
47546;DHT22;50104;52.002;4.688;2023-04-25T21:32:24;7.60;68.60
47546;DHT22;50104;52.002;4.688;2023-04-25T21:37:26;7.50;68.60
47546;DHT22;50104;52.002;4.688;2023-04-25T21:42:27;7.40;68.70
47546;DHT22;50104;52.002;4.688;2023-04-25T21:47:28;7.20;68.70
47546;DHT22;50104;52.002;4.688;2023-04-25T21:52:29;7.10;69.00
47546;DHT22;50104;52.002;4.688;2023-04-25T21:57:30;7.00;69.10
47546;DHT22;50104;52.002;4.688;2023-04-25T22:02:31;6.90;69.20
47546;DHT22;50104;52.002;4.688;2023-04-25T22:07:32;6.70;69.40
47546;DHT22;50104;52.002;4.688;2023-04-25T22:12:33;6.60;69.50
47546;DHT22;50104;52.002;4.688;2023-04-25T22:17:35;6.50;69.80
47546;DHT22;50104;52.002;4.688;2023-04-25T22:22:38;6.50;70.10
47546;DHT22;50104;52.002;4.688;2023-04-25T22:27:40;6.30;70.30
47546;DHT22;50104;52.002;4.688;2023-04-25T22:32:42;6.30;70.60
47546;DHT22;50104;52.002;4.688;2023-04-25T22:37:43;6.20;71.00
47546;DHT22;50104;52.002;4.688;2023-04-25T22:42:44;6.20;71.50
47546;DHT22;50104;52.002;4.688;2023-04-25T22:47:45;6.20;71.70
47546;DHT22;50104;52.002;4.688;2023-04-25T22:52:46;6.20;71.90
47546;DHT22;50104;52.002;4.688;2023-04-25T22:57:47;6.20;72.20
47546;DHT22;50104;52.002;4.688;2023-04-25T23:02:48;6.20;72.30
47546;DHT22;50104;52.002;4.688;2023-04-25T23:07:50;6.20;72.30
47546;DHT22;50104;52.002;4.688;2023-04-25T23:12:51;6.20;72.30
47546;DHT22;50104;52.002;4.688;2023-04-25T23:17:54;6.10;72.20
47546;DHT22;50104;52.002;4.688;2023-04-25T23:22:55;6.10;72.30
47546;DHT22;50104;52.002;4.688;2023-04-25T23:27:56;6.00;72.30
47546;DHT22;50104;52.002;4.688;2023-04-25T23:32:57;5.90;72.40
47546;DHT22;50104;52.002;4.688;2023-04-25T23:37:58;5.80;72.40
47546;DHT22;50104;52.002;4.688;2023-04-25T23:42:58;5.80;72.50
47546;DHT22;50104;52.002;4.688;2023-04-25T23:48:01;5.70;72.50
47546;DHT22;50104;52.002;4.688;2023-04-25T23:53:03;5.60;72.60
47546;DHT22;50104;52.002;4.688;2023-04-25T23:58:03;5.50;72.60
